createdAt,value
2017-11-04T00:00:28.565Z,10.67
2017-11-04T00:02:58.939Z,10.23
2017-11-04T00:05:30.291Z,12.23
2017-11-04T00:08:01.992Z,14.47
2017-11-04T00:10:33.140Z,9.60
2017-11-04T00:13:03.401Z,11.73
2017-11-04T00:15:34.610Z,11.97
2017-11-04T00:18:07.229Z,10.67
2017-11-04T00:20:37.720Z,15.67
2017-11-04T00:23:11.204Z,11.57
2017-11-04T00:25:42.145Z,10.50
2017-11-04T00:28:14.955Z,14.13
2017-11-04T00:30:46.343Z,10.37
2017-11-04T00:33:17.063Z,12.57
2017-11-04T00:35:47.820Z,11.63
2017-11-04T00:38:19.821Z,12.80
2017-11-04T00:40:50.081Z,9.40
2017-11-04T00:43:23.119Z,14.40
2017-11-04T00:45:54.546Z,10.77
2017-11-04T00:48:25.764Z,13.27
2017-11-04T00:50:56.665Z,12.47
2017-11-04T00:53:29.030Z,14.73
2017-11-04T00:56:00.766Z,14.47
2017-11-04T00:58:33.814Z,15.63
2017-11-04T01:01:04.214Z,12.80
2017-11-04T01:03:36.199Z,12.83
2017-11-04T01:06:08.367Z,12.33
2017-11-04T01:08:39.803Z,10.87
2017-11-04T01:11:11.316Z,11.60
2017-11-04T01:13:46.196Z,10.97
2017-11-04T01:16:17.026Z,9.60
2017-11-04T01:18:47.904Z,10.40
2017-11-04T01:21:18.005Z,10.77
2017-11-04T01:23:48.730Z,12.47
2017-11-04T01:26:19.083Z,11.47
2017-11-04T01:28:50.965Z,10.67
2017-11-04T01:31:21.573Z,10.90
2017-11-04T01:33:52.639Z,12.20
2017-11-04T01:36:23.656Z,11.53
2017-11-04T01:38:54.736Z,11.57
2017-11-04T01:41:25.545Z,11.67
2017-11-04T01:43:56.514Z,11.00
2017-11-04T01:46:27.644Z,12.20
2017-11-04T01:48:59.332Z,12.90
2017-11-04T01:51:30.087Z,15.20
2017-11-04T01:54:00.384Z,14.20
2017-11-04T01:56:31.131Z,11.47
2017-11-04T01:59:01.489Z,11.83
2017-11-04T02:01:31.878Z,13.70
2017-11-04T02:04:02.892Z,10.83
2017-11-04T02:06:34.989Z,10.73
2017-11-04T02:09:06.694Z,10.17
2017-11-04T02:11:37.262Z,11.90
2017-11-04T02:14:07.826Z,9.93
2017-11-04T02:16:42.086Z,9.87
2017-11-04T02:19:13.380Z,10.20
2017-11-04T02:21:44.486Z,11.90
2017-11-04T02:24:15.309Z,10.43
2017-11-04T02:26:46.836Z,11.10
2017-11-04T02:29:18.461Z,13.43
2017-11-04T02:31:49.255Z,10.20
2017-11-04T02:34:20.058Z,9.77
2017-11-04T02:36:52.730Z,10.70
2017-11-04T02:39:27.282Z,8.83
2017-11-04T02:41:58.665Z,12.37
2017-11-04T02:44:29.046Z,12.73
2017-11-04T02:47:02.670Z,11.90
2017-11-04T02:49:33.694Z,9.23
2017-11-04T02:52:05.198Z,12.00
2017-11-04T02:54:36.612Z,9.90
2017-11-04T02:57:07.672Z,9.93
2017-11-04T02:59:39.188Z,10.47
2017-11-04T03:02:11.528Z,12.17
2017-11-04T03:04:42.174Z,10.80
2017-11-04T03:07:12.703Z,11.87
2017-11-04T03:09:42.956Z,13.33
2017-11-04T03:12:14.184Z,13.73
2017-11-04T03:14:44.998Z,15.27
2017-11-04T03:17:15.698Z,12.77
2017-11-04T03:19:46.310Z,15.20
2017-11-04T03:22:17.148Z,14.10
2017-11-04T03:24:49.300Z,14.90
2017-11-04T03:27:19.932Z,11.57
2017-11-04T03:29:50.467Z,13.27
2017-11-04T03:32:21.623Z,12.70
2017-11-04T03:34:52.955Z,14.07
2017-11-04T03:37:24.729Z,12.27
2017-11-04T03:39:56.735Z,10.80
2017-11-04T03:42:28.638Z,9.63
2017-11-04T03:44:59.179Z,9.90
2017-11-04T03:47:30.778Z,11.17
2017-11-04T03:50:01.725Z,9.27
2017-11-04T03:52:35.065Z,9.67
2017-11-04T03:55:08.249Z,12.90
2017-11-04T03:57:39.287Z,11.73
2017-11-04T04:00:10.644Z,13.00
2017-11-04T04:02:41.365Z,13.43
2017-11-04T04:05:12.838Z,11.60
2017-11-04T04:07:43.509Z,11.80
2017-11-04T04:10:13.738Z,12.80
2017-11-04T04:12:44.405Z,12.50
2017-11-04T04:15:15.038Z,11.70
2017-11-04T04:17:45.872Z,14.20
2017-11-04T04:20:16.812Z,14.50
2017-11-04T04:22:47.709Z,9.60
2017-11-04T04:25:18.467Z,13.60
2017-11-04T04:27:49.801Z,13.43
2017-11-04T04:30:20.877Z,13.57
2017-11-04T04:32:52.863Z,14.67
2017-11-04T04:35:23.769Z,16.77
2017-11-04T04:37:55.360Z,13.63
2017-11-04T04:40:26.251Z,11.50
2017-11-04T04:42:58.658Z,11.90
2017-11-04T04:45:29.961Z,11.80
2017-11-04T04:48:00.901Z,14.70
2017-11-04T04:50:31.959Z,12.60
2017-11-04T04:53:02.873Z,13.50
2017-11-04T04:55:33.321Z,15.23
2017-11-04T04:58:04.848Z,16.23
2017-11-04T05:00:35.277Z,14.90
2017-11-04T05:03:08.790Z,15.33
2017-11-04T05:05:40.120Z,14.00
2017-11-04T05:08:11.487Z,14.27
2017-11-04T05:10:42.259Z,15.00
2017-11-04T05:13:15.200Z,15.30
2017-11-04T05:15:47.244Z,16.00
2017-11-04T05:18:18.074Z,12.97
2017-11-04T05:20:48.859Z,13.40
2017-11-04T05:23:19.989Z,13.07
2017-11-04T05:25:51.756Z,13.40
2017-11-04T05:28:24.285Z,13.43
2017-11-04T05:30:54.742Z,14.20
2017-11-04T05:33:26.895Z,12.93
2017-11-04T05:35:58.174Z,13.73
2017-11-04T05:38:29.652Z,12.10
2017-11-04T05:40:59.929Z,14.70
2017-11-04T05:43:31.041Z,13.30
2017-11-04T05:46:02.898Z,15.87
2017-11-04T05:48:33.956Z,13.30
2017-11-04T05:51:05.719Z,12.37
2017-11-04T05:53:37.790Z,16.50
2017-11-04T05:56:09.060Z,17.03
2017-11-04T05:58:39.986Z,12.93
2017-11-04T06:01:13.500Z,13.47
2017-11-04T06:03:56.556Z,14.17
2017-11-04T06:06:27.337Z,15.37
2017-11-04T06:09:06.894Z,14.20
2017-11-04T06:11:38.943Z,15.03
2017-11-04T06:14:11.718Z,13.70
2017-11-04T06:16:42.760Z,14.90
2017-11-04T06:19:13.445Z,16.20
2017-11-04T06:21:44.212Z,13.73
2017-11-04T06:24:16.366Z,15.90
2017-11-04T06:26:48.959Z,13.63
2017-11-04T06:29:24.426Z,14.07
2017-11-04T06:31:55.955Z,16.20
2017-11-04T06:34:27.197Z,13.60
2017-11-04T06:36:58.359Z,12.80
2017-11-04T06:39:29.886Z,15.17
2017-11-04T06:42:00.660Z,15.63
2017-11-04T06:44:33.032Z,14.00
2017-11-04T06:47:05.274Z,17.33
2017-11-04T06:49:36.326Z,14.40
2017-11-04T06:52:07.048Z,18.03
2017-11-04T06:54:38.761Z,17.90
2017-11-04T06:57:11.505Z,15.10
2017-11-04T06:59:44.173Z,15.70
2017-11-04T07:02:16.924Z,15.13
2017-11-04T07:04:47.446Z,17.87
2017-11-04T07:07:19.589Z,12.80
2017-11-04T07:09:50.346Z,13.40
2017-11-04T07:12:22.685Z,14.17
2017-11-04T07:14:53.136Z,15.60
2017-11-04T07:17:23.428Z,15.93
2017-11-04T07:20:00.982Z,15.00
2017-11-04T07:22:34.823Z,15.83
2017-11-04T07:25:09.088Z,14.70
2017-11-04T07:27:46.387Z,15.30
2017-11-04T07:30:17.153Z,15.73
2017-11-04T07:32:48.669Z,16.07
2017-11-04T07:35:19.803Z,17.80
2017-11-04T07:37:51.385Z,15.03
2017-11-04T07:40:24.767Z,17.77
2017-11-04T07:43:00.598Z,16.07
2017-11-04T07:45:31.003Z,16.77
2017-11-04T07:48:01.957Z,18.40
2017-11-04T07:50:32.386Z,16.90
2017-11-04T07:53:03.864Z,15.67
2017-11-04T07:55:36.594Z,17.70
2017-11-04T07:58:07.068Z,18.40
2017-11-04T08:00:38.055Z,17.80
2017-11-04T08:03:08.788Z,16.40
2017-11-04T08:05:39.988Z,19.30
2017-11-04T08:08:10.484Z,18.63
2017-11-04T08:10:40.839Z,17.07
2017-11-04T08:13:10.930Z,19.40
2017-11-04T08:15:41.290Z,19.23
2017-11-04T08:18:14.987Z,18.40
2017-11-04T08:20:45.058Z,21.50
2017-11-04T08:23:15.330Z,18.80
2017-11-04T08:25:46.258Z,18.80
2017-11-04T08:28:19.308Z,17.23
2017-11-04T08:30:50.077Z,17.87
2017-11-04T08:33:20.437Z,18.27
2017-11-04T08:35:55.572Z,18.50
2017-11-04T08:38:25.934Z,17.80
2017-11-04T08:40:57.747Z,15.53
2017-11-04T08:43:29.014Z,18.23
2017-11-04T08:46:01.458Z,16.90
2017-11-04T08:48:32.247Z,14.87
2017-11-04T08:51:05.883Z,17.97
2017-11-04T08:53:36.790Z,17.00
2017-11-04T08:56:09.725Z,18.90
2017-11-04T08:58:41.874Z,20.03
2017-11-04T09:01:12.486Z,18.33
2017-11-04T09:03:43.459Z,20.50
2017-11-04T09:06:15.547Z,17.20
2017-11-04T09:08:45.899Z,18.70
2017-11-04T09:11:16.501Z,19.10
2017-11-04T09:13:47.465Z,17.40
2017-11-04T09:16:18.711Z,17.03
2017-11-04T09:18:48.983Z,17.60
2017-11-04T09:21:21.417Z,18.93
2017-11-04T09:24:05.209Z,19.07
2017-11-04T09:26:36.503Z,17.90
2017-11-04T09:29:08.238Z,17.07
2017-11-04T09:31:39.602Z,17.57
2017-11-04T09:34:10.593Z,16.63
2017-11-04T09:36:41.265Z,17.27
2017-11-04T09:39:13.270Z,20.60
2017-11-04T09:41:43.908Z,18.80
2017-11-04T09:44:15.569Z,18.80
2017-11-04T09:46:46.085Z,20.50
2017-11-04T09:49:16.822Z,19.53
2017-11-04T09:51:47.588Z,18.10
2017-11-04T09:54:17.739Z,17.97
2017-11-04T09:56:48.026Z,18.83
2017-11-04T09:59:18.210Z,18.90
2017-11-04T10:01:49.284Z,15.77
2017-11-04T10:04:19.546Z,15.13
2017-11-04T10:06:50.102Z,16.03
2017-11-04T10:09:20.766Z,16.00
2017-11-04T10:11:51.052Z,15.90
2017-11-04T10:14:21.697Z,15.83
2017-11-04T10:16:52.430Z,15.37
2017-11-04T10:19:23.265Z,16.00
2017-11-04T10:21:54.203Z,16.50
2017-11-04T10:24:24.799Z,15.77
2017-11-04T10:26:54.940Z,16.53
2017-11-04T10:29:25.775Z,15.27
2017-11-04T10:31:56.161Z,17.53
2017-11-04T10:34:26.816Z,15.27
2017-11-04T10:36:58.444Z,15.53
2017-11-04T10:39:29.277Z,17.10
2017-11-04T10:41:59.675Z,16.10
2017-11-04T10:44:30.308Z,14.97
2017-11-04T10:47:01.877Z,15.80
2017-11-04T10:49:32.118Z,17.30
2017-11-04T10:52:05.169Z,16.10
2017-11-04T10:54:35.399Z,15.63
2017-11-04T10:57:05.563Z,15.10
2017-11-04T10:59:37.128Z,16.07
2017-11-04T11:02:07.443Z,17.93
2017-11-04T11:04:37.640Z,17.33
2017-11-04T11:07:09.488Z,16.77
2017-11-04T11:09:39.764Z,18.43
2017-11-04T11:12:10.831Z,17.70
2017-11-04T11:14:41.516Z,17.70
2017-11-04T11:17:16.176Z,17.80
2017-11-04T11:19:48.106Z,18.30
2017-11-04T11:22:18.802Z,17.57
2017-11-04T11:24:50.057Z,18.70
2017-11-04T11:27:25.323Z,18.00
2017-11-04T11:29:57.163Z,17.17
2017-11-04T11:32:27.756Z,16.30
2017-11-04T11:34:57.755Z,17.50
2017-11-04T11:37:28.583Z,15.77
2017-11-04T11:40:01.121Z,18.60
2017-11-04T11:42:31.211Z,18.40
2017-11-04T11:45:01.677Z,17.07
2017-11-04T11:47:32.063Z,17.83
2017-11-04T11:50:02.173Z,17.00
2017-11-04T11:52:32.794Z,18.10
2017-11-04T11:55:03.265Z,17.73
2017-11-04T11:57:33.728Z,17.07
2017-11-04T12:00:04.661Z,18.03
2017-11-04T12:02:35.279Z,18.03
2017-11-04T12:05:05.358Z,19.17
2017-11-04T12:07:35.659Z,16.50
2017-11-04T12:10:05.827Z,16.93
2017-11-04T12:12:36.275Z,19.30
2017-11-04T12:15:07.166Z,18.73
2017-11-04T12:17:37.345Z,17.70
2017-11-04T12:20:09.068Z,18.10
2017-11-04T12:22:39.913Z,17.93
2017-11-04T12:25:10.086Z,17.83
2017-11-04T12:27:40.196Z,18.03
2017-11-04T12:30:11.332Z,18.20
2017-11-04T12:32:42.296Z,18.60
2017-11-04T12:35:12.431Z,18.63
2017-11-04T12:37:43.247Z,18.67
2017-11-04T12:40:14.951Z,19.30
2017-11-04T12:42:46.032Z,17.60
2017-11-04T12:45:16.870Z,17.80
2017-11-04T12:47:47.047Z,16.80
2017-11-04T12:50:18.265Z,17.57
2017-11-04T12:55:17.147Z,18.10
2017-11-04T12:57:47.835Z,17.63
2017-11-04T13:00:18.882Z,17.30
2017-11-04T13:02:53.502Z,16.40
2017-11-04T13:05:23.812Z,17.47
2017-11-04T13:07:54.346Z,15.50
2017-11-04T13:10:24.781Z,16.80
2017-11-04T13:12:56.152Z,17.60
2017-11-04T13:15:26.543Z,17.10
2017-11-04T13:17:58.460Z,16.47
2017-11-04T13:20:28.886Z,15.60
2017-11-04T13:22:59.727Z,15.10
2017-11-04T13:25:30.308Z,15.90
2017-11-04T13:28:02.221Z,14.90
2017-11-04T13:30:32.730Z,16.20
2017-11-04T13:33:03.239Z,14.83
2017-11-04T13:35:34.411Z,15.00
2017-11-04T13:38:05.260Z,14.20
2017-11-04T13:40:36.255Z,14.17
2017-11-04T13:43:07.163Z,15.33
2017-11-04T13:45:42.086Z,16.77
2017-11-04T13:48:13.404Z,17.13
2017-11-04T13:50:44.189Z,14.87
2017-11-04T13:53:18.351Z,15.20
2017-11-04T13:55:49.630Z,13.50
2017-11-04T13:58:23.303Z,16.00
2017-11-04T14:00:53.971Z,14.07
2017-11-04T14:03:24.111Z,15.23
2017-11-04T14:05:54.480Z,15.13
2017-11-04T14:08:30.522Z,16.07
2017-11-04T14:11:01.017Z,16.70
2017-11-04T14:13:31.276Z,17.57
2017-11-04T14:16:03.174Z,14.77
2017-11-04T14:18:42.727Z,15.80
2017-11-04T14:21:12.924Z,16.13
2017-11-04T14:23:43.967Z,14.30
2017-11-04T14:26:14.472Z,15.20
2017-11-04T14:28:44.814Z,14.63
2017-11-04T14:31:16.778Z,16.60
2017-11-04T14:33:48.781Z,14.63
2017-11-04T14:36:22.433Z,15.07
2017-11-04T14:38:55.750Z,14.90
2017-11-04T14:41:28.091Z,15.23
2017-11-04T14:44:08.238Z,15.50
2017-11-04T14:46:45.458Z,15.67
2017-11-04T14:49:20.242Z,15.80
2017-11-04T14:51:53.753Z,15.37
2017-11-04T14:54:29.341Z,15.97
2017-11-04T14:57:02.093Z,16.30
2017-11-04T14:59:35.574Z,14.70
2017-11-04T15:02:07.858Z,15.30
2017-11-04T15:04:42.550Z,16.23
2017-11-04T15:07:15.198Z,15.60
2017-11-04T15:09:49.593Z,14.30
2017-11-04T15:12:23.113Z,16.63
2017-11-04T15:14:56.446Z,15.50
2017-11-04T15:17:30.597Z,14.93
2017-11-04T15:20:08.394Z,14.43
2017-11-04T15:22:41.873Z,13.70
2017-11-04T15:25:12.635Z,13.07
2017-11-04T15:27:45.997Z,14.10
2017-11-04T15:30:17.572Z,14.87
2017-11-04T15:32:50.394Z,13.93
2017-11-04T15:35:24.087Z,14.80
2017-11-04T15:37:56.652Z,12.80
2017-11-04T15:40:30.680Z,14.00
2017-11-04T15:43:04.245Z,14.30
2017-11-04T15:45:39.767Z,14.03
2017-11-04T15:48:15.188Z,13.07
2017-11-04T15:50:50.844Z,13.13
2017-11-04T15:53:23.810Z,13.73
2017-11-04T15:55:57.228Z,13.80
2017-11-04T15:58:31.873Z,14.40
2017-11-04T16:01:06.504Z,13.53
2017-11-04T16:03:39.857Z,12.60
2017-11-04T16:06:17.274Z,12.00
2017-11-04T16:08:52.491Z,13.87
2017-11-04T16:11:29.970Z,13.80
2017-11-04T16:14:04.549Z,12.97
2017-11-04T16:16:38.998Z,14.10
2017-11-04T16:19:13.076Z,12.60
2017-11-04T16:21:46.327Z,13.30
2017-11-04T16:24:21.910Z,14.20
2017-11-04T16:26:57.961Z,14.50
2017-11-04T16:29:32.447Z,13.60
2017-11-04T16:32:06.616Z,14.90
2017-11-04T16:34:38.821Z,14.80
2017-11-04T16:37:11.653Z,14.60
2017-11-04T16:39:44.120Z,15.00
2017-11-04T16:42:26.353Z,15.17
2017-11-04T16:45:04.876Z,15.30
2017-11-04T16:47:42.667Z,13.50
2017-11-04T16:50:20.464Z,14.53
2017-11-04T16:52:54.108Z,14.73
2017-11-04T16:55:35.497Z,14.60
2017-11-04T16:58:21.170Z,14.23
2017-11-04T17:07:45.980Z,13.63
2017-11-04T17:10:22.578Z,14.27
2017-11-04T17:12:57.443Z,14.07
2017-11-04T17:15:31.505Z,14.30
2017-11-04T17:18:02.963Z,14.30
2017-11-04T17:20:37.725Z,12.03
2017-11-04T17:23:12.514Z,11.30
2017-11-04T17:25:46.854Z,12.03
2017-11-04T17:28:20.352Z,11.33
2017-11-04T17:30:53.731Z,12.07
2017-11-04T17:33:27.681Z,11.80
2017-11-04T17:36:02.161Z,10.73
2017-11-04T17:38:36.120Z,10.50
2017-11-04T17:41:07.927Z,11.27
2017-11-04T17:43:42.807Z,10.17
2017-11-04T17:46:15.865Z,10.20
2017-11-04T17:48:49.839Z,9.90
2017-11-04T17:51:24.529Z,10.57
2017-11-04T17:54:00.956Z,9.23
2017-11-04T17:56:38.752Z,9.33
2017-11-04T17:59:13.019Z,11.30
2017-11-04T18:01:48.363Z,11.00
2017-11-04T18:04:21.449Z,10.07
2017-11-04T18:07:00.247Z,10.50
2017-11-04T18:09:37.205Z,9.83
2017-11-04T18:12:12.699Z,10.10
2017-11-04T18:14:48.759Z,9.80
2017-11-04T18:17:22.611Z,10.60
2017-11-04T18:19:58.590Z,10.10
2017-11-04T18:22:35.629Z,10.70
2017-11-04T18:25:11.712Z,10.97
2017-11-04T18:27:46.967Z,9.03
2017-11-04T18:30:23.603Z,9.93
2017-11-04T18:32:59.657Z,10.07
2017-11-04T18:35:36.993Z,8.67
2017-11-04T18:38:16.441Z,9.20
2017-11-04T18:40:52.208Z,8.33
2017-11-04T18:43:29.726Z,9.00
2017-11-04T18:46:09.876Z,9.80
2017-11-04T18:48:46.628Z,9.50
2017-11-04T18:51:24.695Z,9.47
2017-11-04T18:54:02.913Z,9.17
2017-11-04T18:56:36.130Z,8.50
2017-11-04T18:59:13.576Z,9.33
2017-11-04T19:01:51.979Z,8.47
2017-11-04T19:04:27.994Z,9.07
2017-11-04T19:07:05.941Z,8.50
2017-11-04T19:09:39.949Z,9.23
2017-11-04T19:12:16.561Z,10.27
2017-11-04T19:14:53.165Z,10.20
2017-11-04T19:17:30.420Z,11.70
2017-11-04T19:20:09.687Z,10.50
2017-11-04T19:22:47.953Z,10.97
2017-11-04T19:25:24.490Z,10.47
2017-11-04T19:28:07.604Z,11.07
2017-11-04T19:30:44.853Z,11.10
2017-11-04T19:33:22.134Z,10.70
2017-11-04T19:35:59.729Z,10.70
2017-11-04T19:38:42.360Z,10.57
2017-11-04T19:41:19.746Z,10.60
2017-11-04T19:43:57.385Z,11.07
2017-11-04T19:46:35.518Z,10.33
2017-11-04T19:49:16.576Z,11.50
2017-11-04T19:51:52.979Z,11.70
2017-11-04T19:54:33.256Z,10.77
2017-11-04T19:57:12.180Z,11.97
2017-11-04T19:59:53.430Z,11.80
2017-11-04T20:02:34.712Z,11.70
2017-11-04T20:05:11.922Z,12.03
2017-11-04T20:07:57.979Z,12.30
2017-11-04T20:10:40.022Z,11.90
2017-11-04T20:13:17.226Z,12.63
2017-11-04T20:15:58.994Z,11.93
2017-11-04T20:18:39.849Z,13.60
2017-11-04T20:21:17.708Z,12.40
2017-11-04T20:23:57.965Z,11.87
2017-11-04T20:26:42.039Z,11.80
2017-11-04T20:29:18.271Z,13.37
2017-11-04T20:32:02.025Z,13.43
2017-11-04T20:34:40.743Z,12.23
2017-11-04T20:37:22.826Z,12.77
2017-11-04T20:40:02.191Z,14.00
2017-11-04T20:42:42.047Z,13.40
2017-11-04T20:45:19.867Z,13.30
2017-11-04T20:47:58.631Z,13.47
2017-11-04T20:50:34.682Z,14.03
2017-11-04T20:53:23.711Z,13.73
2017-11-04T20:55:59.445Z,12.77
2017-11-04T20:58:36.287Z,14.43
2017-11-04T21:01:16.948Z,13.57
2017-11-04T21:03:57.178Z,12.43
2017-11-04T21:06:29.970Z,14.43
2017-11-04T21:09:03.722Z,15.70
2017-11-04T21:11:36.554Z,16.73
2017-11-04T21:14:09.574Z,15.37
2017-11-04T21:16:42.400Z,17.17
2017-11-04T21:19:15.273Z,16.77
2017-11-04T21:21:48.664Z,15.47
2017-11-04T21:24:24.517Z,15.77
2017-11-04T21:27:01.161Z,17.50
2017-11-04T21:29:34.985Z,16.10
2017-11-04T21:32:09.472Z,17.70
2017-11-04T21:34:43.278Z,17.17
2017-11-04T21:37:19.931Z,16.80
2017-11-04T21:39:54.728Z,17.47
2017-11-04T21:42:33.999Z,17.33
2017-11-04T21:45:09.018Z,17.67
2017-11-04T21:47:42.897Z,17.93
2017-11-04T21:50:17.253Z,18.07
2017-11-04T21:52:47.942Z,18.00
2017-11-04T21:55:23.694Z,17.77
2017-11-04T21:57:56.717Z,17.63
2017-11-04T22:00:30.783Z,18.27
2017-11-04T22:03:05.032Z,17.40
2017-11-04T22:05:39.293Z,18.73
2017-11-04T22:08:12.874Z,19.40
2017-11-04T22:10:45.317Z,18.67
2017-11-04T22:13:18.559Z,17.37
2017-11-04T22:15:53.137Z,19.40
2017-11-04T22:18:24.578Z,16.97
2017-11-04T22:20:56.522Z,20.30
2017-11-04T22:23:28.675Z,18.73
2017-11-04T22:26:00.495Z,18.53
2017-11-04T22:28:33.048Z,19.30
2017-11-04T22:31:04.162Z,19.60
2017-11-04T22:33:37.333Z,19.07
2017-11-04T22:36:08.326Z,16.87
2017-11-04T22:38:39.515Z,15.50
2017-11-04T22:41:11.007Z,18.33
2017-11-04T22:43:41.601Z,15.50
2017-11-04T22:46:11.841Z,17.60
2017-11-04T22:48:43.564Z,17.00
2017-11-04T22:51:15.899Z,15.83
2017-11-04T22:53:46.417Z,16.17
2017-11-04T22:56:17.114Z,15.00
2017-11-04T22:58:47.404Z,15.07
2017-11-04T23:01:17.818Z,14.67
2017-11-04T23:03:48.360Z,13.63
2017-11-04T23:06:19.767Z,13.57
2017-11-04T23:08:50.986Z,13.20
2017-11-04T23:11:21.087Z,13.50
2017-11-04T23:13:51.295Z,15.17
2017-11-04T23:16:21.549Z,13.07
2017-11-04T23:18:52.424Z,12.83
2017-11-04T23:21:23.548Z,14.23
2017-11-04T23:23:54.818Z,12.17
2017-11-04T23:26:25.038Z,13.30
2017-11-04T23:28:55.927Z,11.53
2017-11-04T23:31:26.326Z,13.50
2017-11-04T23:33:57.308Z,11.20
2017-11-04T23:36:30.553Z,12.30
2017-11-04T23:39:01.137Z,11.90
2017-11-04T23:41:34.158Z,11.60
2017-11-04T23:44:04.723Z,12.30
2017-11-04T23:46:35.309Z,11.40
2017-11-04T23:49:06.083Z,10.70
2017-11-04T23:51:37.391Z,10.70
2017-11-04T23:54:07.505Z,11.43
2017-11-04T23:56:38.081Z,12.57
2017-11-04T23:59:08.853Z,11.43
